sensor_id;sensor_type;location;lat;lon;timestamp;pressure;altitude;pressure_sealevel;temperature;humidity
22605;BME280;11469;49.024;8.246;2023-04-20T00:00:20;100500.22;;;5.45;76.30
22605;BME280;11469;49.024;8.246;2023-04-20T00:02:46;100493.66;;;5.41;76.86
22605;BME280;11469;49.024;8.246;2023-04-20T00:05:11;100490.53;;;5.34;76.90
22605;BME280;11469;49.024;8.246;2023-04-20T00:07:37;100487.91;;;5.29;77.05
22605;BME280;11469;49.024;8.246;2023-04-20T00:10:06;100485.94;;;5.21;77.96
22605;BME280;11469;49.024;8.246;2023-04-20T00:12:32;100481.03;;;5.09;78.35
22605;BME280;11469;49.024;8.246;2023-04-20T00:14:57;100471.03;;;4.99;78.49
22605;BME280;11469;49.024;8.246;2023-04-20T00:17:22;100470.38;;;5.03;79.84
22605;BME280;11469;49.024;8.246;2023-04-20T00:19:48;100466.75;;;4.85;79.61
22605;BME280;11469;49.024;8.246;2023-04-20T00:22:13;100465.56;;;4.77;80.26
22605;BME280;11469;49.024;8.246;2023-04-20T00:24:38;100461.94;;;4.59;81.03
22605;BME280;11469;49.024;8.246;2023-04-20T00:27:04;100454.34;;;4.43;81.03
22605;BME280;11469;49.024;8.246;2023-04-20T00:29:29;100457.56;;;4.36;82.40
22605;BME280;11469;49.024;8.246;2023-04-20T00:31:55;100448.03;;;4.20;83.12
22605;BME280;11469;49.024;8.246;2023-04-20T00:34:20;100445.38;;;4.15;83.61
22605;BME280;11469;49.024;8.246;2023-04-20T00:36:46;100445.44;;;4.23;84.27
22605;BME280;11469;49.024;8.246;2023-04-20T00:39:14;100439.03;;;4.14;83.91
22605;BME280;11469;49.024;8.246;2023-04-20T00:41:40;100434.88;;;4.03;84.63
22605;BME280;11469;49.024;8.246;2023-04-20T00:44:06;100433.41;;;4.06;85.08
22605;BME280;11469;49.024;8.246;2023-04-20T00:46:32;100429.50;;;4.07;85.28
22605;BME280;11469;49.024;8.246;2023-04-20T00:48:57;100428.06;;;3.87;85.85
22605;BME280;11469;49.024;8.246;2023-04-20T00:51:23;100426.63;;;3.89;86.48
22605;BME280;11469;49.024;8.246;2023-04-20T00:53:48;100422.44;;;3.70;86.86
22605;BME280;11469;49.024;8.246;2023-04-20T00:56:14;100426.41;;;3.77;87.14
22605;BME280;11469;49.024;8.246;2023-04-20T00:58:44;100416.91;;;3.70;87.27
22605;BME280;11469;49.024;8.246;2023-04-20T01:01:11;100409.59;;;3.74;87.26
22605;BME280;11469;49.024;8.246;2023-04-20T01:03:37;100418.03;;;3.69;87.08
22605;BME280;11469;49.024;8.246;2023-04-20T01:06:03;100412.09;;;3.61;87.26
22605;BME280;11469;49.024;8.246;2023-04-20T01:08:29;100410.09;;;3.53;87.71
22605;BME280;11469;49.024;8.246;2023-04-20T01:10:55;100404.97;;;3.47;88.44
22605;BME280;11469;49.024;8.246;2023-04-20T01:13:20;100398.84;;;3.36;89.10
22605;BME280;11469;49.024;8.246;2023-04-20T01:15:46;100396.28;;;3.40;89.47
22605;BME280;11469;49.024;8.246;2023-04-20T01:18:11;100396.59;;;3.38;89.65
22605;BME280;11469;49.024;8.246;2023-04-20T01:20:37;100392.00;;;3.33;89.45
22605;BME280;11469;49.024;8.246;2023-04-20T01:23:03;100388.72;;;3.31;89.83
22605;BME280;11469;49.024;8.246;2023-04-20T01:25:28;100382.13;;;3.19;89.39
22605;BME280;11469;49.024;8.246;2023-04-20T01:27:54;100384.75;;;3.24;90.00
22605;BME280;11469;49.024;8.246;2023-04-20T01:30:19;100373.38;;;3.25;89.46
22605;BME280;11469;49.024;8.246;2023-04-20T01:32:45;100372.47;;;3.16;89.54
22605;BME280;11469;49.024;8.246;2023-04-20T01:35:11;100371.66;;;3.16;89.80
22605;BME280;11469;49.024;8.246;2023-04-20T01:37:38;100369.31;;;3.09;89.80
22605;BME280;11469;49.024;8.246;2023-04-20T01:40:04;100365.72;;;3.09;89.96
22605;BME280;11469;49.024;8.246;2023-04-20T01:42:30;100367.09;;;2.97;90.55
22605;BME280;11469;49.024;8.246;2023-04-20T01:44:56;100364.22;;;3.03;90.79
22605;BME280;11469;49.024;8.246;2023-04-20T01:47:21;100358.78;;;2.97;90.87
22605;BME280;11469;49.024;8.246;2023-04-20T01:49:47;100357.56;;;2.90;91.17
22605;BME280;11469;49.024;8.246;2023-04-20T01:52:12;100355.91;;;3.03;91.73
22605;BME280;11469;49.024;8.246;2023-04-20T01:54:37;100344.63;;;2.99;91.30
22605;BME280;11469;49.024;8.246;2023-04-20T01:57:03;100348.84;;;2.96;91.24
22605;BME280;11469;49.024;8.246;2023-04-20T01:59:28;100346.59;;;2.98;90.12
22605;BME280;11469;49.024;8.246;2023-04-20T02:01:53;100341.75;;;3.04;90.31
22605;BME280;11469;49.024;8.246;2023-04-20T02:04:20;100341.97;;;2.94;90.30
22605;BME280;11469;49.024;8.246;2023-04-20T02:06:45;100341.78;;;2.90;90.56
22605;BME280;11469;49.024;8.246;2023-04-20T02:09:11;100343.53;;;2.86;90.96
22605;BME280;11469;49.024;8.246;2023-04-20T02:11:36;100341.78;;;2.90;91.00
22605;BME280;11469;49.024;8.246;2023-04-20T02:14:01;100337.88;;;2.91;91.07
22605;BME280;11469;49.024;8.246;2023-04-20T02:16:27;100335.13;;;2.91;90.88
22605;BME280;11469;49.024;8.246;2023-04-20T02:18:54;100335.44;;;2.90;90.72
22605;BME280;11469;49.024;8.246;2023-04-20T02:21:19;100333.47;;;2.90;90.54
22605;BME280;11469;49.024;8.246;2023-04-20T02:23:44;100327.13;;;2.90;90.35
22605;BME280;11469;49.024;8.246;2023-04-20T02:26:10;100327.00;;;2.95;89.41
22605;BME280;11469;49.024;8.246;2023-04-20T02:28:35;100324.03;;;2.91;89.51
22605;BME280;11469;49.024;8.246;2023-04-20T02:31:01;100327.81;;;2.95;88.83
22605;BME280;11469;49.024;8.246;2023-04-20T02:33:27;100316.97;;;2.85;88.83
22605;BME280;11469;49.024;8.246;2023-04-20T02:35:52;100317.63;;;2.82;89.11
22605;BME280;11469;49.024;8.246;2023-04-20T02:38:17;100312.91;;;2.83;89.44
22605;BME280;11469;49.024;8.246;2023-04-20T02:40:43;100308.00;;;2.80;89.90
22605;BME280;11469;49.024;8.246;2023-04-20T02:43:08;100308.00;;;2.80;89.73
22605;BME280;11469;49.024;8.246;2023-04-20T02:45:34;100301.03;;;2.82;89.60
22605;BME280;11469;49.024;8.246;2023-04-20T02:47:59;100302.97;;;2.82;89.89
22605;BME280;11469;49.024;8.246;2023-04-20T02:50:25;100302.78;;;2.78;89.61
22605;BME280;11469;49.024;8.246;2023-04-20T02:52:50;100301.97;;;2.78;90.11
22605;BME280;11469;49.024;8.246;2023-04-20T02:55:16;100296.13;;;2.79;90.01
22605;BME280;11469;49.024;8.246;2023-04-20T02:57:41;100299.50;;;2.76;89.91
22605;BME280;11469;49.024;8.246;2023-04-20T03:00:07;100291.50;;;2.75;89.82
22605;BME280;11469;49.024;8.246;2023-04-20T03:02:37;100293.88;;;2.67;89.36
22605;BME280;11469;49.024;8.246;2023-04-20T03:05:02;100292.56;;;2.65;89.15
22605;BME280;11469;49.024;8.246;2023-04-20T03:07:30;100283.88;;;2.58;89.68
22605;BME280;11469;49.024;8.246;2023-04-20T03:09:56;100286.94;;;2.56;89.72
22605;BME280;11469;49.024;8.246;2023-04-20T03:12:22;100281.13;;;2.44;90.79
22605;BME280;11469;49.024;8.246;2023-04-20T03:14:47;100284.00;;;2.39;91.60
22605;BME280;11469;49.024;8.246;2023-04-20T03:17:13;100278.41;;;2.66;90.36
22605;BME280;11469;49.024;8.246;2023-04-20T03:19:38;100272.78;;;2.58;90.34
22605;BME280;11469;49.024;8.246;2023-04-20T03:22:03;100273.19;;;2.65;89.76
22605;BME280;11469;49.024;8.246;2023-04-20T03:24:29;100275.38;;;2.54;89.42
22605;BME280;11469;49.024;8.246;2023-04-20T03:26:54;100270.25;;;2.48;89.94
22605;BME280;11469;49.024;8.246;2023-04-20T03:29:20;100261.25;;;2.42;90.74
22605;BME280;11469;49.024;8.246;2023-04-20T03:31:45;100267.06;;;2.54;90.24
22605;BME280;11469;49.024;8.246;2023-04-20T03:34:11;100266.56;;;2.52;89.82
22605;BME280;11469;49.024;8.246;2023-04-20T03:36:36;100272.06;;;2.66;88.54
22605;BME280;11469;49.024;8.246;2023-04-20T03:39:02;100269.38;;;2.75;87.68
22605;BME280;11469;49.024;8.246;2023-04-20T03:41:29;100267.72;;;2.96;85.53
22605;BME280;11469;49.024;8.246;2023-04-20T03:43:55;100268.75;;;3.00;84.71
22605;BME280;11469;49.024;8.246;2023-04-20T03:46:20;100269.81;;;2.90;85.55
22605;BME280;11469;49.024;8.246;2023-04-20T03:48:46;100265.47;;;2.98;85.21
22605;BME280;11469;49.024;8.246;2023-04-20T03:51:11;100261.19;;;2.92;85.02
22605;BME280;11469;49.024;8.246;2023-04-20T03:53:36;100263.94;;;2.92;85.33
22605;BME280;11469;49.024;8.246;2023-04-20T03:56:02;100255.72;;;3.00;84.86
22605;BME280;11469;49.024;8.246;2023-04-20T03:58:27;100261.63;;;3.08;84.35
22605;BME280;11469;49.024;8.246;2023-04-20T04:01:00;100263.59;;;3.07;84.11
22605;BME280;11469;49.024;8.246;2023-04-20T04:03:25;100263.22;;;3.22;83.81
22605;BME280;11469;49.024;8.246;2023-04-20T04:05:51;100262.75;;;3.07;83.72
22605;BME280;11469;49.024;8.246;2023-04-20T04:08:16;100261.44;;;3.04;84.51
22605;BME280;11469;49.024;8.246;2023-04-20T04:10:41;100251.94;;;2.96;85.17
22605;BME280;11469;49.024;8.246;2023-04-20T04:13:07;100258.41;;;2.92;85.10
22605;BME280;11469;49.024;8.246;2023-04-20T04:15:32;100261.88;;;2.97;84.61
22605;BME280;11469;49.024;8.246;2023-04-20T04:17:58;100256.47;;;2.92;84.89
22605;BME280;11469;49.024;8.246;2023-04-20T04:20:23;100257.38;;;2.79;86.24
22605;BME280;11469;49.024;8.246;2023-04-20T04:22:48;100258.84;;;2.63;87.63
22605;BME280;11469;49.024;8.246;2023-04-20T04:25:16;100260.72;;;2.54;88.06
22605;BME280;11469;49.024;8.246;2023-04-20T04:27:42;100261.25;;;2.42;89.62
22605;BME280;11469;49.024;8.246;2023-04-20T04:30:07;100262.34;;;2.55;89.57
22605;BME280;11469;49.024;8.246;2023-04-20T04:32:33;100256.84;;;2.41;89.62
22605;BME280;11469;49.024;8.246;2023-04-20T04:35:00;100259.31;;;2.43;90.22
22605;BME280;11469;49.024;8.246;2023-04-20T04:37:25;100255.91;;;2.46;90.16
22605;BME280;11469;49.024;8.246;2023-04-20T04:39:51;100253.53;;;2.53;89.56
22605;BME280;11469;49.024;8.246;2023-04-20T04:42:16;100257.44;;;2.52;89.70
22605;BME280;11469;49.024;8.246;2023-04-20T04:44:42;100258.25;;;2.52;89.65
22605;BME280;11469;49.024;8.246;2023-04-20T04:47:07;100255.19;;;2.54;90.50
22605;BME280;11469;49.024;8.246;2023-04-20T04:49:33;100248.31;;;2.51;90.73
22605;BME280;11469;49.024;8.246;2023-04-20T04:52:00;100241.34;;;2.54;90.93
22605;BME280;11469;49.024;8.246;2023-04-20T04:54:25;100241.94;;;2.64;90.32
22605;BME280;11469;49.024;8.246;2023-04-20T04:56:51;100241.78;;;2.83;89.06
22605;BME280;11469;49.024;8.246;2023-04-20T04:59:16;100246.41;;;2.96;87.83
22605;BME280;11469;49.024;8.246;2023-04-20T05:01:41;100243.25;;;2.89;87.68
22605;BME280;11469;49.024;8.246;2023-04-20T05:04:07;100251.38;;;2.86;88.45
22605;BME280;11469;49.024;8.246;2023-04-20T05:06:32;100259.31;;;2.79;88.71
22605;BME280;11469;49.024;8.246;2023-04-20T05:08:57;100263.00;;;2.74;89.51
22605;BME280;11469;49.024;8.246;2023-04-20T05:11:23;100253.06;;;2.73;89.93
22605;BME280;11469;49.024;8.246;2023-04-20T05:13:48;100255.22;;;2.76;90.09
22605;BME280;11469;49.024;8.246;2023-04-20T05:16:14;100261.00;;;2.88;89.83
22605;BME280;11469;49.024;8.246;2023-04-20T05:18:39;100261.31;;;2.87;89.83
22605;BME280;11469;49.024;8.246;2023-04-20T05:21:05;100259.03;;;2.89;90.48
22605;BME280;11469;49.024;8.246;2023-04-20T05:23:30;100259.75;;;2.94;90.79
22605;BME280;11469;49.024;8.246;2023-04-20T05:25:55;100252.63;;;3.02;91.25
22605;BME280;11469;49.024;8.246;2023-04-20T05:28:21;100255.34;;;3.16;91.18
22605;BME280;11469;49.024;8.246;2023-04-20T05:30:46;100260.97;;;3.33;90.66
22605;BME280;11469;49.024;8.246;2023-04-20T05:33:12;100265.78;;;3.50;89.86
22605;BME280;11469;49.024;8.246;2023-04-20T05:35:37;100260.88;;;3.47;90.62
22605;BME280;11469;49.024;8.246;2023-04-20T05:38:04;100262.03;;;3.46;90.77
22605;BME280;11469;49.024;8.246;2023-04-20T05:40:31;100255.97;;;3.44;90.69
22605;BME280;11469;49.024;8.246;2023-04-20T05:42:58;100259.75;;;3.48;91.48
22605;BME280;11469;49.024;8.246;2023-04-20T05:45:23;100264.34;;;3.52;92.05
22605;BME280;11469;49.024;8.246;2023-04-20T05:47:55;100264.84;;;3.54;92.74
22605;BME280;11469;49.024;8.246;2023-04-20T05:50:25;100263.31;;;3.71;92.85
22605;BME280;11469;49.024;8.246;2023-04-20T05:52:51;100271.50;;;3.84;93.60
22605;BME280;11469;49.024;8.246;2023-04-20T05:55:18;100263.28;;;4.10;92.16
22605;BME280;11469;49.024;8.246;2023-04-20T05:57:43;100261.56;;;4.57;89.38
22605;BME280;11469;49.024;8.246;2023-04-20T06:00:13;100270.72;;;5.01;87.59
22605;BME280;11469;49.024;8.246;2023-04-20T06:02:40;100275.38;;;5.52;83.51
22605;BME280;11469;49.024;8.246;2023-04-20T06:05:06;100271.34;;;5.79;81.57
22605;BME280;11469;49.024;8.246;2023-04-20T06:07:33;100260.38;;;5.83;79.95
22605;BME280;11469;49.024;8.246;2023-04-20T06:09:59;100266.09;;;5.95;79.57
22605;BME280;11469;49.024;8.246;2023-04-20T06:12:26;100273.56;;;6.03;78.83
22605;BME280;11469;49.024;8.246;2023-04-20T06:14:52;100265.56;;;6.02;77.44
22605;BME280;11469;49.024;8.246;2023-04-20T06:17:17;100259.81;;;6.07;77.76
22605;BME280;11469;49.024;8.246;2023-04-20T06:19:42;100264.72;;;6.10;78.18
22605;BME280;11469;49.024;8.246;2023-04-20T06:22:08;100262.53;;;6.15;78.09
22605;BME280;11469;49.024;8.246;2023-04-20T06:24:34;100257.44;;;6.17;77.84
22605;BME280;11469;49.024;8.246;2023-04-20T06:26:59;100269.81;;;6.28;76.68
22605;BME280;11469;49.024;8.246;2023-04-20T06:29:26;100259.13;;;6.39;75.84
22605;BME280;11469;49.024;8.246;2023-04-20T06:31:51;100254.13;;;6.53;75.81
22605;BME280;11469;49.024;8.246;2023-04-20T06:34:17;100258.06;;;6.73;76.46
22605;BME280;11469;49.024;8.246;2023-04-20T06:36:42;100261.19;;;6.92;75.99
22605;BME280;11469;49.024;8.246;2023-04-20T06:39:08;100248.13;;;7.05;75.09
22605;BME280;11469;49.024;8.246;2023-04-20T06:41:33;100261.94;;;6.81;75.17
22605;BME280;11469;49.024;8.246;2023-04-20T06:43:59;100262.13;;;6.76;75.09
22605;BME280;11469;49.024;8.246;2023-04-20T06:46:24;100246.09;;;6.73;75.09
22605;BME280;11469;49.024;8.246;2023-04-20T06:48:50;100248.06;;;6.93;74.44
22605;BME280;11469;49.024;8.246;2023-04-20T06:51:15;100240.78;;;7.01;74.10
22605;BME280;11469;49.024;8.246;2023-04-20T06:53:40;100256.66;;;7.21;73.29
22605;BME280;11469;49.024;8.246;2023-04-20T06:56:06;100242.25;;;7.19;73.92
22605;BME280;11469;49.024;8.246;2023-04-20T06:58:31;100249.88;;;7.10;74.63
22605;BME280;11469;49.024;8.246;2023-04-20T07:00:57;100243.88;;;7.20;74.22
22605;BME280;11469;49.024;8.246;2023-04-20T07:03:22;100238.63;;;7.06;73.91
22605;BME280;11469;49.024;8.246;2023-04-20T07:05:48;100239.31;;;7.03;74.25
22605;BME280;11469;49.024;8.246;2023-04-20T07:08:13;100240.66;;;6.97;74.04
22605;BME280;11469;49.024;8.246;2023-04-20T07:10:39;100229.59;;;6.68;75.02
22605;BME280;11469;49.024;8.246;2023-04-20T07:13:05;100238.47;;;7.03;76.26
22605;BME280;11469;49.024;8.246;2023-04-20T07:15:30;100240.25;;;7.07;74.87
22605;BME280;11469;49.024;8.246;2023-04-20T07:17:56;100225.72;;;7.14;75.87
22605;BME280;11469;49.024;8.246;2023-04-20T07:20:21;100230.22;;;7.39;74.26
22605;BME280;11469;49.024;8.246;2023-04-20T07:22:47;100233.41;;;7.50;75.27
22605;BME280;11469;49.024;8.246;2023-04-20T07:25:12;100226.81;;;7.21;75.96
22605;BME280;11469;49.024;8.246;2023-04-20T07:27:39;100224.53;;;7.36;74.97
22605;BME280;11469;49.024;8.246;2023-04-20T07:30:06;100222.94;;;7.47;74.35
22605;BME280;11469;49.024;8.246;2023-04-20T07:32:33;100224.69;;;7.18;74.83
22605;BME280;11469;49.024;8.246;2023-04-20T07:34:58;100214.38;;;7.19;75.74
22605;BME280;11469;49.024;8.246;2023-04-20T07:37:24;100225.47;;;7.40;74.64
22605;BME280;11469;49.024;8.246;2023-04-20T07:39:51;100218.53;;;7.13;75.01
22605;BME280;11469;49.024;8.246;2023-04-20T07:42:17;100221.22;;;7.21;74.50
22605;BME280;11469;49.024;8.246;2023-04-20T07:44:43;100232.72;;;7.65;74.99
22605;BME280;11469;49.024;8.246;2023-04-20T07:47:08;100216.53;;;7.46;74.33
22605;BME280;11469;49.024;8.246;2023-04-20T07:49:37;100216.81;;;7.90;73.71
22605;BME280;11469;49.024;8.246;2023-04-20T07:52:05;100219.34;;;7.46;74.48
22605;BME280;11469;49.024;8.246;2023-04-20T07:54:30;100220.06;;;7.68;74.20
22605;BME280;11469;49.024;8.246;2023-04-20T07:56:57;100214.69;;;7.50;73.92
22605;BME280;11469;49.024;8.246;2023-04-20T07:59:22;100211.34;;;7.81;72.88
22605;BME280;11469;49.024;8.246;2023-04-20T08:01:48;100219.81;;;7.60;74.50
22605;BME280;11469;49.024;8.246;2023-04-20T08:04:13;100219.47;;;7.62;74.76
22605;BME280;11469;49.024;8.246;2023-04-20T08:06:38;100225.88;;;7.75;74.18
22605;BME280;11469;49.024;8.246;2023-04-20T08:09:04;100224.50;;;7.81;74.05
22605;BME280;11469;49.024;8.246;2023-04-20T08:11:29;100213.09;;;8.10;73.47
22605;BME280;11469;49.024;8.246;2023-04-20T08:13:55;100210.53;;;8.05;71.79
22605;BME280;11469;49.024;8.246;2023-04-20T08:16:20;100199.47;;;8.09;72.52
22605;BME280;11469;49.024;8.246;2023-04-20T08:18:46;100208.47;;;8.02;72.98
22605;BME280;11469;49.024;8.246;2023-04-20T08:21:11;100196.59;;;7.93;73.04
22605;BME280;11469;49.024;8.246;2023-04-20T08:23:36;100194.81;;;8.25;72.80
22605;BME280;11469;49.024;8.246;2023-04-20T08:26:03;100195.16;;;8.23;72.10
22605;BME280;11469;49.024;8.246;2023-04-20T08:28:28;100199.16;;;8.35;72.06
22605;BME280;11469;49.024;8.246;2023-04-20T08:30:54;100191.75;;;8.54;71.17
22605;BME280;11469;49.024;8.246;2023-04-20T08:33:19;100190.44;;;8.64;71.46
22605;BME280;11469;49.024;8.246;2023-04-20T08:35:45;100180.47;;;8.91;70.33
22605;BME280;11469;49.024;8.246;2023-04-20T08:38:10;100180.38;;;9.03;69.71
22605;BME280;11469;49.024;8.246;2023-04-20T08:40:36;100174.09;;;9.06;70.52
22605;BME280;11469;49.024;8.246;2023-04-20T08:43:02;100166.56;;;9.22;70.16
22605;BME280;11469;49.024;8.246;2023-04-20T08:45:28;100172.09;;;9.07;67.72
22605;BME280;11469;49.024;8.246;2023-04-20T08:47:57;100163.19;;;9.17;68.06
22605;BME280;11469;49.024;8.246;2023-04-20T08:50:22;100169.41;;;9.10;68.08
22605;BME280;11469;49.024;8.246;2023-04-20T08:52:48;100161.94;;;9.14;70.12
22605;BME280;11469;49.024;8.246;2023-04-20T08:55:17;100168.59;;;9.10;68.74
22605;BME280;11469;49.024;8.246;2023-04-20T08:57:43;100166.09;;;9.20;69.76
22605;BME280;11469;49.024;8.246;2023-04-20T09:00:09;100173.63;;;9.04;69.79
22605;BME280;11469;49.024;8.246;2023-04-20T09:02:35;100167.56;;;9.30;70.78
22605;BME280;11469;49.024;8.246;2023-04-20T09:05:02;100171.16;;;9.30;69.22
22605;BME280;11469;49.024;8.246;2023-04-20T09:07:29;100169.00;;;9.55;69.07
22605;BME280;11469;49.024;8.246;2023-04-20T09:09:58;100160.59;;;9.55;67.66
22605;BME280;11469;49.024;8.246;2023-04-20T09:12:25;100157.00;;;9.71;68.70
22605;BME280;11469;49.024;8.246;2023-04-20T09:14:51;100160.88;;;9.82;68.80
22605;BME280;11469;49.024;8.246;2023-04-20T09:17:29;100154.06;;;9.98;67.09
22605;BME280;11469;49.024;8.246;2023-04-20T09:19:55;100146.88;;;9.82;67.72
22605;BME280;11469;49.024;8.246;2023-04-20T09:22:32;100147.38;;;10.03;67.10
22605;BME280;11469;49.024;8.246;2023-04-20T09:24:58;100148.03;;;9.96;66.02
22605;BME280;11469;49.024;8.246;2023-04-20T09:27:24;100145.94;;;10.09;66.07
22605;BME280;11469;49.024;8.246;2023-04-20T09:30:00;100134.44;;;10.49;66.03
22605;BME280;11469;49.024;8.246;2023-04-20T09:32:28;100135.34;;;10.53;64.60
22605;BME280;11469;49.024;8.246;2023-04-20T09:34:53;100125.31;;;10.72;64.68
22605;BME280;11469;49.024;8.246;2023-04-20T09:37:19;100132.59;;;10.57;63.90
22605;BME280;11469;49.024;8.246;2023-04-20T09:39:45;100132.47;;;10.69;63.56
22605;BME280;11469;49.024;8.246;2023-04-20T09:42:12;100125.34;;;10.94;61.79
22605;BME280;11469;49.024;8.246;2023-04-20T09:44:38;100131.59;;;10.84;62.55
22605;BME280;11469;49.024;8.246;2023-04-20T09:47:04;100120.19;;;10.96;61.11
22605;BME280;11469;49.024;8.246;2023-04-20T09:49:31;100116.72;;;11.49;60.84
22605;BME280;11469;49.024;8.246;2023-04-20T09:51:57;100111.97;;;11.76;59.09
22605;BME280;11469;49.024;8.246;2023-04-20T09:54:22;100116.53;;;11.38;59.51
22605;BME280;11469;49.024;8.246;2023-04-20T09:56:48;100114.31;;;11.24;60.63
22605;BME280;11469;49.024;8.246;2023-04-20T09:59:16;100115.56;;;11.27;60.04
22605;BME280;11469;49.024;8.246;2023-04-20T10:01:43;100108.13;;;11.61;59.43
22605;BME280;11469;49.024;8.246;2023-04-20T10:04:09;100112.97;;;11.41;58.21
22605;BME280;11469;49.024;8.246;2023-04-20T10:06:36;100101.22;;;11.32;60.66
22605;BME280;11469;49.024;8.246;2023-04-20T10:09:03;100100.72;;;11.26;58.64
22605;BME280;11469;49.024;8.246;2023-04-20T10:11:39;100098.13;;;10.95;60.21
22605;BME280;11469;49.024;8.246;2023-04-20T10:14:16;100106.91;;;10.93;58.93
22605;BME280;11469;49.024;8.246;2023-04-20T10:16:42;100102.75;;;11.07;59.45
22605;BME280;11469;49.024;8.246;2023-04-20T10:19:08;100106.16;;;10.96;59.76
22605;BME280;11469;49.024;8.246;2023-04-20T10:21:44;100101.41;;;11.20;59.04
22605;BME280;11469;49.024;8.246;2023-04-20T10:24:10;100098.84;;;11.11;60.00
22605;BME280;11469;49.024;8.246;2023-04-20T10:26:41;100103.84;;;11.21;63.37
22605;BME280;11469;49.024;8.246;2023-04-20T10:29:08;100096.06;;;11.34;64.06
22605;BME280;11469;49.024;8.246;2023-04-20T10:31:42;100100.91;;;11.14;61.61
22605;BME280;11469;49.024;8.246;2023-04-20T10:34:08;100091.75;;;11.17;66.08
22605;BME280;11469;49.024;8.246;2023-04-20T10:36:35;100094.09;;;11.15;63.26
22605;BME280;11469;49.024;8.246;2023-04-20T10:39:18;100092.72;;;11.06;62.08
22605;BME280;11469;49.024;8.246;2023-04-20T10:42:10;100089.09;;;11.05;66.19
22605;BME280;11469;49.024;8.246;2023-04-20T10:44:48;100083.34;;;10.98;68.69
22605;BME280;11469;49.024;8.246;2023-04-20T10:47:15;100074.13;;;10.97;70.03
22605;BME280;11469;49.024;8.246;2023-04-20T10:49:40;100081.84;;;11.23;68.89
22605;BME280;11469;49.024;8.246;2023-04-20T10:52:06;100078.22;;;11.23;67.76
22605;BME280;11469;49.024;8.246;2023-04-20T10:54:39;100081.19;;;11.11;66.45
22605;BME280;11469;49.024;8.246;2023-04-20T10:57:05;100077.75;;;10.98;64.81
22605;BME280;11469;49.024;8.246;2023-04-20T10:59:32;100070.59;;;10.78;65.82
22605;BME280;11469;49.024;8.246;2023-04-20T11:01:59;100073.91;;;10.83;68.16
22605;BME280;11469;49.024;8.246;2023-04-20T11:04:32;100075.75;;;10.76;72.01
22605;BME280;11469;49.024;8.246;2023-04-20T11:07:05;100063.66;;;10.72;70.13
22605;BME280;11469;49.024;8.246;2023-04-20T11:09:32;100068.38;;;10.68;71.27
22605;BME280;11469;49.024;8.246;2023-04-20T11:12:03;100059.59;;;10.69;70.99
22605;BME280;11469;49.024;8.246;2023-04-20T11:14:36;100064.91;;;10.74;68.82
22605;BME280;11469;49.024;8.246;2023-04-20T11:17:03;100059.59;;;10.69;70.72
22605;BME280;11469;49.024;8.246;2023-04-20T11:19:34;100067.72;;;10.55;67.92
22605;BME280;11469;49.024;8.246;2023-04-20T11:22:00;100065.31;;;10.34;75.01
22605;BME280;11469;49.024;8.246;2023-04-20T11:24:31;100069.34;;;10.02;81.09
22605;BME280;11469;49.024;8.246;2023-04-20T11:27:02;100070.63;;;9.69;82.19
22605;BME280;11469;49.024;8.246;2023-04-20T11:29:36;100079.56;;;9.59;86.69
22605;BME280;11469;49.024;8.246;2023-04-20T11:32:07;100074.34;;;9.57;84.97
22605;BME280;11469;49.024;8.246;2023-04-20T11:34:34;100074.16;;;9.66;86.11
22605;BME280;11469;49.024;8.246;2023-04-20T11:37:10;100071.06;;;9.71;84.29
22605;BME280;11469;49.024;8.246;2023-04-20T11:39:38;100074.28;;;9.89;82.48
22605;BME280;11469;49.024;8.246;2023-04-20T11:42:03;100066.19;;;9.84;79.22
22605;BME280;11469;49.024;8.246;2023-04-20T11:44:29;100065.91;;;9.73;76.95
22605;BME280;11469;49.024;8.246;2023-04-20T11:46:55;100063.94;;;9.74;75.42
22605;BME280;11469;49.024;8.246;2023-04-20T11:49:25;100054.63;;;9.85;77.01
22605;BME280;11469;49.024;8.246;2023-04-20T11:51:50;100048.94;;;10.01;79.65
22605;BME280;11469;49.024;8.246;2023-04-20T11:54:16;100052.63;;;10.05;78.14
22605;BME280;11469;49.024;8.246;2023-04-20T11:56:46;100053.69;;;10.16;78.18
22605;BME280;11469;49.024;8.246;2023-04-20T11:59:11;100054.25;;;10.06;73.84
22605;BME280;11469;49.024;8.246;2023-04-20T12:01:39;100050.28;;;10.07;73.77
22605;BME280;11469;49.024;8.246;2023-04-20T12:04:05;100047.09;;;10.24;71.92
22605;BME280;11469;49.024;8.246;2023-04-20T12:06:30;100052.75;;;10.47;73.22
22605;BME280;11469;49.024;8.246;2023-04-20T12:08:56;100042.63;;;10.62;75.13
22605;BME280;11469;49.024;8.246;2023-04-20T12:11:22;100048.47;;;10.53;74.81
22605;BME280;11469;49.024;8.246;2023-04-20T12:13:48;100046.34;;;10.47;73.38
22605;BME280;11469;49.024;8.246;2023-04-20T12:16:13;100043.91;;;10.45;72.83
22605;BME280;11469;49.024;8.246;2023-04-20T12:18:38;100045.53;;;10.46;74.97
22605;BME280;11469;49.024;8.246;2023-04-20T12:21:04;100045.44;;;10.62;76.74
22605;BME280;11469;49.024;8.246;2023-04-20T12:23:30;100041.16;;;10.49;77.73
22605;BME280;11469;49.024;8.246;2023-04-20T12:25:55;100040.72;;;10.47;76.54
22605;BME280;11469;49.024;8.246;2023-04-20T12:28:21;100042.59;;;10.39;77.65
22605;BME280;11469;49.024;8.246;2023-04-20T12:30:46;100046.94;;;10.37;75.88
22605;BME280;11469;49.024;8.246;2023-04-20T12:33:11;100053.88;;;10.23;74.73
22605;BME280;11469;49.024;8.246;2023-04-20T12:35:37;100037.09;;;10.08;75.45
22605;BME280;11469;49.024;8.246;2023-04-20T12:38:02;100041.22;;;10.14;73.58
22605;BME280;11469;49.024;8.246;2023-04-20T12:40:28;100039.44;;;10.21;73.78
22605;BME280;11469;49.024;8.246;2023-04-20T12:42:53;100038.41;;;10.29;74.81
22605;BME280;11469;49.024;8.246;2023-04-20T12:45:18;100035.56;;;10.49;77.78
22605;BME280;11469;49.024;8.246;2023-04-20T12:47:44;100039.97;;;10.69;78.17
22605;BME280;11469;49.024;8.246;2023-04-20T12:50:10;100036.38;;;10.69;73.32
22605;BME280;11469;49.024;8.246;2023-04-20T12:52:35;100037.31;;;10.99;74.81